Detalii statie MOLDOVA TIGANASI [00001D08]

Toti senzorii

Date Temperatura solului [C]Precipitatii [mm]Voltaj baterie [mV]Leaf Wetness [Min]HC Air temperature [C]HC Relative humidity [%]Punctul de roua [C]
medieminmaxsumaultimatimpmedieminmaxmediemediemin
2019-06-15 18:00:00 25.6 25.5 25.8 0 7226 30.45 29.63 31.34 56.76 20.6 19.2
2019-06-15 19:00:00 25.3 24.9 25.9 0 7236 26.14 25.11 28.43 73.05 20.7 19.9
2019-06-15 20:00:00 24.9 24.7 25.2 0 7060 24.8 24.2 25.57 82.1 21.3 20
2019-06-15 21:00:00 24.4 24.2 24.7 0 6982 24.19 23.68 24.6 82.41 20.8 20.5
2019-06-15 22:00:00 24 23.8 24.2 0 6982 23.45 22.96 24.07 83.61 20.3 20.1
2019-06-15 23:00:00 23.7 23.6 23.9 0 6972 22.87 22.04 23.31 85.34 20.1 20
2019-06-16 00:00:00 23.3 23.2 23.6 0 6962 21.03 20.39 22 97.22 20.4 20.1
2019-06-16 01:00:00 23 22.8 23.3 0 6952 20.45 19.46 21.14 99.45 20.2 19.4
2019-06-16 02:00:00 22.7 22.6 22.9 0 6952 19.73 19.32 20.44 100 19.6 19.3
2019-06-16 03:00:00 22.4 22.2 22.6 0 6952 19.13 18.2 19.71 100 19 18.2
2019-06-16 04:00:00 22.1 22 22.4 0 6932 18.72 18.36 19.17 100 18.6 18.3
2019-06-16 05:00:00 21.8 21.6 22 0 6942 18.28 17.97 18.81 100 18.2 17.9
2019-06-16 06:00:00 21.7 21.6 21.8 0 7030 20.27 19.03 21.14 100 20.2 19
2019-06-16 07:00:00 21.8 21.6 22.1 0 7216 22.9 21.28 23.75 100 22.8 21.2
2019-06-16 08:00:00 22.2 22 22.5 0 7342 25.87 24.1 27 88.87 23.7 23.1
2019-06-16 09:00:00 22.7 22.4 23 0 7342 28.81 27.72 29.91 67.92 22.1 21.3
2019-06-16 10:00:00 23.3 23 23.6 0 7342 31.4 30.13 33.48 58.7 22.1 20.8
2019-06-16 11:00:00 23.9 23.6 24.1 0 7342 32.39 30.86 33.94 55.47 22.1 20.8
2019-06-16 12:00:00 24.3 24.1 24.6 0 7342 32.89 32.14 33.76 55.81 22.7 21.3
2019-06-16 13:00:00 24.9 24.7 25.3 0 7332 33.26 32.3 34.58 55.59 22.9 21.6
2019-06-16 14:00:00 25.4 25.3 25.7 0 7332 33.97 32.67 35.81 52.53 22.6 20.7
2019-06-16 15:00:00 25.7 25.6 25.9 0 7342 33.21 30.59 36.32 51.88 21.6 19.7
2019-06-16 16:00:00 26 25.8 26.2 0 7254 33.73 27.22 36.63 49.51 21.2 19.7
2019-06-16 17:00:00 25.7 25.6 26.1 0 7342 26.01 25.03 26.95 75.79 21.2 20.3
2019-06-16 18:00:00 25.4 25.1 25.7 0 7342 27.13 26.76 27.76 73.55 21.7 20
2019-06-16 19:00:00 25.3 25.1 25.5 0 7246 28.03 26.72 28.99 75.53 23 21
2019-06-16 20:00:00 25.1 24.7 25.3 0 7070 25.54 23.59 26.59 86.18 22.8 21.5
2019-06-16 21:00:00 24.5 24.2 24.9 0 7030 22.97 22.21 23.58 90.44 21.1 20.1
2019-06-16 22:00:00 24 23.8 24.3 0 7010 21.95 20.6 23.2 90.17 20.1 19.8
2019-06-16 23:00:00 23.7 23.5 23.9 0 6992 20.9 20.44 21.51 98.33 20.5 19.8
2019-06-17 00:00:00 23.3 23.2 23.5 0 6952 20.92 20.41 21.44 100 20.9 20.4
2019-06-17 01:00:00 23 23 23.2 0 6942 20.6 20.14 21 100 20.5 20.1
2019-06-17 02:00:00 22.8 22.5 23 0 6952 19.68 19.14 20.36 100 19.6 19.1
2019-06-17 03:00:00 22.5 22.4 22.7 0 6952 19.38 19 19.63 100 19.3 19
2019-06-17 04:00:00 22.2 22.1 22.4 0 6922 19.1 18.62 19.47 100 19 18.6
2019-06-17 05:00:00 21.9 21.9 22.2 0 6952 19.14 18.44 19.61 100 19 18.4
2019-06-17 06:00:00 21.9 21.8 22 0 7020 20.2 19.26 21.6 100 20.1 19.2
2019-06-17 07:00:00 22 21.9 22.2 0 7246 23.33 21.79 24.52 97.88 22.9 21.7
2019-06-17 08:00:00 22.3 22 22.6 0 7352 25.64 25.09 25.96 86.34 23 22.7
2019-06-17 09:00:00 22.7 22.6 23 0 7342 27.4 26.25 28.85 80.07 23.4 23.1
2019-06-17 10:00:00 23.3 23.1 23.7 0 7342 29.95 29.13 30.71 72.33 24.2 23.2
2019-06-17 11:00:00 24 23.6 24.4 0 7342 30.16 29.64 30.91 71.72 24.3 23.4
2019-06-17 12:00:00 24.4 24.2 24.9 0 7342 30.79 30.19 31.44 66.64 23.6 22.8
2019-06-17 13:00:00 24.8 24.7 25.3 0 7342 31.2 30.07 31.84 64.87 23.5 22.4
2019-06-17 14:00:00 25.3 25.2 25.5 0 7342 32.08 30.45 33.4 59.96 23 21.9
2019-06-17 15:00:00 25.5 25.1 25.8 0 7352 31.24 29.67 32.59 63.01 23.1 21.9
2019-06-17 16:00:00 25.6 25.4 25.9 0.8 7342 27.04 22.39 31.38 75.63 22 20.6
2019-06-17 17:00:00 25.2 24.9 25.4 0.2 7274 23.22 22.25 24.32 96.01 22.4 20.8